sensor_id;sensor_type;location;lat;lon;timestamp;temperature;humidity
25918;DHT22;13899;51.174;4.456;2023-04-24T00:02:16;10.10;99.90
25918;DHT22;13899;51.174;4.456;2023-04-24T00:04:42;10.10;99.90
25918;DHT22;13899;51.174;4.456;2023-04-24T00:07:10;10.00;99.90
25918;DHT22;13899;51.174;4.456;2023-04-24T00:09:36;9.90;99.90
25918;DHT22;13899;51.174;4.456;2023-04-24T00:12:02;9.90;99.90
25918;DHT22;13899;51.174;4.456;2023-04-24T00:14:31;9.90;99.90
25918;DHT22;13899;51.174;4.456;2023-04-24T00:16:57;10.00;99.90
25918;DHT22;13899;51.174;4.456;2023-04-24T00:19:23;9.90;99.90
25918;DHT22;13899;51.174;4.456;2023-04-24T00:21:49;10.00;99.90
25918;DHT22;13899;51.174;4.456;2023-04-24T00:24:16;9.90;99.90
25918;DHT22;13899;51.174;4.456;2023-04-24T00:26:42;10.00;99.90
25918;DHT22;13899;51.174;4.456;2023-04-24T00:29:07;10.00;99.90
25918;DHT22;13899;51.174;4.456;2023-04-24T00:31:33;9.90;99.90
25918;DHT22;13899;51.174;4.456;2023-04-24T00:34:02;10.00;99.90
25918;DHT22;13899;51.174;4.456;2023-04-24T00:36:28;10.00;99.90
25918;DHT22;13899;51.174;4.456;2023-04-24T00:38:54;10.10;99.90
25918;DHT22;13899;51.174;4.456;2023-04-24T00:41:21;10.20;99.90
25918;DHT22;13899;51.174;4.456;2023-04-24T00:43:47;10.00;99.90
25918;DHT22;13899;51.174;4.456;2023-04-24T00:46:14;10.00;99.90
25918;DHT22;13899;51.174;4.456;2023-04-24T00:48:40;10.00;99.90
25918;DHT22;13899;51.174;4.456;2023-04-24T00:51:05;9.90;99.90
25918;DHT22;13899;51.174;4.456;2023-04-24T00:53:31;9.90;99.90
25918;DHT22;13899;51.174;4.456;2023-04-24T00:55:58;9.90;99.90
25918;DHT22;13899;51.174;4.456;2023-04-24T00:58:24;9.90;99.90
25918;DHT22;13899;51.174;4.456;2023-04-24T01:00:50;9.90;99.90
25918;DHT22;13899;51.174;4.456;2023-04-24T01:03:20;9.90;99.90
25918;DHT22;13899;51.174;4.456;2023-04-24T01:05:48;9.90;99.90
25918;DHT22;13899;51.174;4.456;2023-04-24T01:08:14;9.80;99.90
25918;DHT22;13899;51.174;4.456;2023-04-24T01:10:41;9.80;99.90
25918;DHT22;13899;51.174;4.456;2023-04-24T01:13:08;9.80;99.90
25918;DHT22;13899;51.174;4.456;2023-04-24T01:15:34;9.80;99.90
25918;DHT22;13899;51.174;4.456;2023-04-24T01:18:00;9.80;99.90
25918;DHT22;13899;51.174;4.456;2023-04-24T01:20:26;9.80;99.90
25918;DHT22;13899;51.174;4.456;2023-04-24T01:22:54;9.80;99.90
25918;DHT22;13899;51.174;4.456;2023-04-24T01:25:22;9.70;99.90
25918;DHT22;13899;51.174;4.456;2023-04-24T01:27:48;9.70;99.90
25918;DHT22;13899;51.174;4.456;2023-04-24T01:30:14;9.70;99.90
25918;DHT22;13899;51.174;4.456;2023-04-24T01:32:40;9.80;99.90
25918;DHT22;13899;51.174;4.456;2023-04-24T01:35:10;9.80;99.90
25918;DHT22;13899;51.174;4.456;2023-04-24T01:37:36;9.70;99.90
25918;DHT22;13899;51.174;4.456;2023-04-24T01:40:06;9.70;99.90
25918;DHT22;13899;51.174;4.456;2023-04-24T01:42:32;9.80;99.90
25918;DHT22;13899;51.174;4.456;2023-04-24T01:44:59;9.90;99.90
25918;DHT22;13899;51.174;4.456;2023-04-24T01:47:26;9.80;99.90
25918;DHT22;13899;51.174;4.456;2023-04-24T01:49:52;9.80;99.90
25918;DHT22;13899;51.174;4.456;2023-04-24T01:52:18;9.80;99.90
25918;DHT22;13899;51.174;4.456;2023-04-24T01:54:44;9.80;99.90
25918;DHT22;13899;51.174;4.456;2023-04-24T01:57:10;9.80;99.90
25918;DHT22;13899;51.174;4.456;2023-04-24T01:59:36;9.80;99.90
25918;DHT22;13899;51.174;4.456;2023-04-24T02:02:02;9.80;99.90
25918;DHT22;13899;51.174;4.456;2023-04-24T02:04:28;9.70;99.90
25918;DHT22;13899;51.174;4.456;2023-04-24T02:06:54;9.80;99.90
25918;DHT22;13899;51.174;4.456;2023-04-24T02:09:20;9.80;99.90
25918;DHT22;13899;51.174;4.456;2023-04-24T02:11:46;9.90;99.90
25918;DHT22;13899;51.174;4.456;2023-04-24T02:14:12;9.80;99.90
25918;DHT22;13899;51.174;4.456;2023-04-24T02:16:37;9.80;99.90
25918;DHT22;13899;51.174;4.456;2023-04-24T02:19:03;9.70;99.90
25918;DHT22;13899;51.174;4.456;2023-04-24T02:21:29;9.70;99.90
25918;DHT22;13899;51.174;4.456;2023-04-24T02:23:56;9.60;99.90
25918;DHT22;13899;51.174;4.456;2023-04-24T02:26:22;9.60;99.90
25918;DHT22;13899;51.174;4.456;2023-04-24T02:28:48;9.70;99.90
25918;DHT22;13899;51.174;4.456;2023-04-24T02:31:14;9.70;99.90
25918;DHT22;13899;51.174;4.456;2023-04-24T02:33:39;9.70;99.90
25918;DHT22;13899;51.174;4.456;2023-04-24T02:36:05;9.80;99.90
25918;DHT22;13899;51.174;4.456;2023-04-24T02:38:31;9.80;99.90
25918;DHT22;13899;51.174;4.456;2023-04-24T02:40:57;9.70;99.90
25918;DHT22;13899;51.174;4.456;2023-04-24T02:43:22;9.60;99.90
25918;DHT22;13899;51.174;4.456;2023-04-24T02:45:48;9.40;99.90
25918;DHT22;13899;51.174;4.456;2023-04-24T02:48:14;9.40;99.90
25918;DHT22;13899;51.174;4.456;2023-04-24T02:50:40;9.20;99.90
25918;DHT22;13899;51.174;4.456;2023-04-24T02:53:06;9.20;99.90
25918;DHT22;13899;51.174;4.456;2023-04-24T02:55:31;9.20;99.90
25918;DHT22;13899;51.174;4.456;2023-04-24T02:57:57;9.30;99.90
25918;DHT22;13899;51.174;4.456;2023-04-24T03:00:23;9.20;99.90
25918;DHT22;13899;51.174;4.456;2023-04-24T03:02:48;9.00;99.90
25918;DHT22;13899;51.174;4.456;2023-04-24T03:05:15;9.00;99.90
25918;DHT22;13899;51.174;4.456;2023-04-24T03:07:41;9.00;99.90
25918;DHT22;13899;51.174;4.456;2023-04-24T03:10:07;9.00;99.90
25918;DHT22;13899;51.174;4.456;2023-04-24T03:12:33;9.00;99.90
25918;DHT22;13899;51.174;4.456;2023-04-24T03:14:58;8.90;99.90
25918;DHT22;13899;51.174;4.456;2023-04-24T03:17:24;8.90;99.90
25918;DHT22;13899;51.174;4.456;2023-04-24T03:19:50;8.80;99.90
25918;DHT22;13899;51.174;4.456;2023-04-24T03:22:16;8.80;99.90
25918;DHT22;13899;51.174;4.456;2023-04-24T03:24:41;8.80;99.90
25918;DHT22;13899;51.174;4.456;2023-04-24T03:27:07;8.80;99.90
25918;DHT22;13899;51.174;4.456;2023-04-24T03:29:33;8.90;99.90
25918;DHT22;13899;51.174;4.456;2023-04-24T03:31:58;9.00;99.90
25918;DHT22;13899;51.174;4.456;2023-04-24T03:34:24;9.00;99.90
25918;DHT22;13899;51.174;4.456;2023-04-24T03:36:50;9.00;99.90
25918;DHT22;13899;51.174;4.456;2023-04-24T03:39:16;9.10;99.90
25918;DHT22;13899;51.174;4.456;2023-04-24T03:41:41;9.10;99.90
25918;DHT22;13899;51.174;4.456;2023-04-24T03:44:07;9.00;99.90
25918;DHT22;13899;51.174;4.456;2023-04-24T03:46:32;9.00;99.90
25918;DHT22;13899;51.174;4.456;2023-04-24T03:48:58;9.10;99.90
25918;DHT22;13899;51.174;4.456;2023-04-24T03:51:24;9.10;99.90
25918;DHT22;13899;51.174;4.456;2023-04-24T03:53:49;9.10;99.90
25918;DHT22;13899;51.174;4.456;2023-04-24T03:56:15;9.10;99.90
25918;DHT22;13899;51.174;4.456;2023-04-24T03:58:41;9.10;99.90
25918;DHT22;13899;51.174;4.456;2023-04-24T04:01:06;9.10;99.90
25918;DHT22;13899;51.174;4.456;2023-04-24T04:03:32;9.10;99.90
25918;DHT22;13899;51.174;4.456;2023-04-24T04:05:58;9.10;99.90
25918;DHT22;13899;51.174;4.456;2023-04-24T04:08:24;9.10;99.90
25918;DHT22;13899;51.174;4.456;2023-04-24T04:10:50;9.10;99.90
25918;DHT22;13899;51.174;4.456;2023-04-24T04:13:16;9.10;99.90
25918;DHT22;13899;51.174;4.456;2023-04-24T04:15:41;9.10;99.90
25918;DHT22;13899;51.174;4.456;2023-04-24T04:18:07;9.20;99.90
25918;DHT22;13899;51.174;4.456;2023-04-24T04:20:33;9.20;99.90
25918;DHT22;13899;51.174;4.456;2023-04-24T04:22:59;9.30;99.90
25918;DHT22;13899;51.174;4.456;2023-04-24T04:25:25;9.30;99.90
25918;DHT22;13899;51.174;4.456;2023-04-24T04:27:51;9.20;99.90
25918;DHT22;13899;51.174;4.456;2023-04-24T04:30:17;9.20;99.90
25918;DHT22;13899;51.174;4.456;2023-04-24T04:32:43;9.20;99.90
25918;DHT22;13899;51.174;4.456;2023-04-24T04:35:09;9.30;99.90
25918;DHT22;13899;51.174;4.456;2023-04-24T04:37:35;9.30;99.90
25918;DHT22;13899;51.174;4.456;2023-04-24T04:40:02;9.20;99.90
25918;DHT22;13899;51.174;4.456;2023-04-24T04:42:36;9.20;99.90
25918;DHT22;13899;51.174;4.456;2023-04-24T04:45:08;9.20;99.90
25918;DHT22;13899;51.174;4.456;2023-04-24T04:47:34;9.20;99.90
25918;DHT22;13899;51.174;4.456;2023-04-24T04:50:00;9.10;99.90
25918;DHT22;13899;51.174;4.456;2023-04-24T04:52:26;9.30;99.90
25918;DHT22;13899;51.174;4.456;2023-04-24T04:54:52;9.20;99.90
25918;DHT22;13899;51.174;4.456;2023-04-24T04:57:18;9.10;99.90
25918;DHT22;13899;51.174;4.456;2023-04-24T04:59:44;9.10;99.90
25918;DHT22;13899;51.174;4.456;2023-04-24T05:02:10;9.00;99.90
25918;DHT22;13899;51.174;4.456;2023-04-24T05:04:35;9.00;99.90
25918;DHT22;13899;51.174;4.456;2023-04-24T05:07:01;9.10;99.90
25918;DHT22;13899;51.174;4.456;2023-04-24T05:09:27;9.20;99.90
25918;DHT22;13899;51.174;4.456;2023-04-24T05:11:55;8.90;99.90
25918;DHT22;13899;51.174;4.456;2023-04-24T05:14:20;8.80;99.90
25918;DHT22;13899;51.174;4.456;2023-04-24T05:16:47;8.80;99.90
25918;DHT22;13899;51.174;4.456;2023-04-24T05:19:12;8.90;99.90
25918;DHT22;13899;51.174;4.456;2023-04-24T05:21:42;8.90;99.90
25918;DHT22;13899;51.174;4.456;2023-04-24T05:24:08;9.00;99.90
25918;DHT22;13899;51.174;4.456;2023-04-24T05:26:34;8.80;99.90
25918;DHT22;13899;51.174;4.456;2023-04-24T05:29:01;8.80;99.90
25918;DHT22;13899;51.174;4.456;2023-04-24T05:31:26;8.90;99.90
25918;DHT22;13899;51.174;4.456;2023-04-24T05:33:52;8.80;99.90
25918;DHT22;13899;51.174;4.456;2023-04-24T05:36:18;8.80;99.90
25918;DHT22;13899;51.174;4.456;2023-04-24T05:38:43;8.60;99.90
25918;DHT22;13899;51.174;4.456;2023-04-24T05:41:09;8.70;99.90
25918;DHT22;13899;51.174;4.456;2023-04-24T05:43:35;8.80;99.90
25918;DHT22;13899;51.174;4.456;2023-04-24T05:46:00;8.80;99.90
25918;DHT22;13899;51.174;4.456;2023-04-24T05:48:26;8.90;99.90
25918;DHT22;13899;51.174;4.456;2023-04-24T05:50:51;8.90;99.90
25918;DHT22;13899;51.174;4.456;2023-04-24T05:53:18;8.90;99.90
25918;DHT22;13899;51.174;4.456;2023-04-24T05:55:44;8.90;99.90
25918;DHT22;13899;51.174;4.456;2023-04-24T05:58:10;9.00;99.90
25918;DHT22;13899;51.174;4.456;2023-04-24T06:00:36;9.10;99.90
25918;DHT22;13899;51.174;4.456;2023-04-24T06:03:03;9.10;99.90
25918;DHT22;13899;51.174;4.456;2023-04-24T06:05:29;9.50;99.90
25918;DHT22;13899;51.174;4.456;2023-04-24T06:07:55;9.20;99.90
25918;DHT22;13899;51.174;4.456;2023-04-24T06:10:21;9.20;99.90
25918;DHT22;13899;51.174;4.456;2023-04-24T06:12:46;9.20;99.90
25918;DHT22;13899;51.174;4.456;2023-04-24T06:15:12;9.30;99.90
25918;DHT22;13899;51.174;4.456;2023-04-24T06:17:38;9.30;99.90
25918;DHT22;13899;51.174;4.456;2023-04-24T06:20:04;9.40;99.90
25918;DHT22;13899;51.174;4.456;2023-04-24T06:22:32;9.30;99.90
25918;DHT22;13899;51.174;4.456;2023-04-24T06:24:57;9.40;99.90
25918;DHT22;13899;51.174;4.456;2023-04-24T06:27:23;9.20;99.90
25918;DHT22;13899;51.174;4.456;2023-04-24T06:29:49;9.30;99.90
25918;DHT22;13899;51.174;4.456;2023-04-24T06:32:22;9.30;99.90
25918;DHT22;13899;51.174;4.456;2023-04-24T06:34:48;9.20;99.90
25918;DHT22;13899;51.174;4.456;2023-04-24T06:37:14;9.30;99.90
25918;DHT22;13899;51.174;4.456;2023-04-24T06:39:40;9.30;99.90
25918;DHT22;13899;51.174;4.456;2023-04-24T06:42:06;9.00;99.90
25918;DHT22;13899;51.174;4.456;2023-04-24T06:44:33;9.00;99.90
25918;DHT22;13899;51.174;4.456;2023-04-24T06:47:03;9.00;99.90
25918;DHT22;13899;51.174;4.456;2023-04-24T06:49:28;9.20;99.90
25918;DHT22;13899;51.174;4.456;2023-04-24T06:51:54;9.70;99.90
25918;DHT22;13899;51.174;4.456;2023-04-24T06:54:19;9.60;99.90
25918;DHT22;13899;51.174;4.456;2023-04-24T06:56:45;9.50;99.90
25918;DHT22;13899;51.174;4.456;2023-04-24T06:59:13;9.50;99.90
25918;DHT22;13899;51.174;4.456;2023-04-24T07:01:38;9.50;99.90
25918;DHT22;13899;51.174;4.456;2023-04-24T07:04:04;9.30;99.90
25918;DHT22;13899;51.174;4.456;2023-04-24T07:06:29;9.20;99.90
25918;DHT22;13899;51.174;4.456;2023-04-24T07:08:57;9.10;99.90
25918;DHT22;13899;51.174;4.456;2023-04-24T07:11:23;9.00;99.90
25918;DHT22;13899;51.174;4.456;2023-04-24T07:13:49;9.10;99.90
25918;DHT22;13899;51.174;4.456;2023-04-24T07:16:14;9.20;99.90
25918;DHT22;13899;51.174;4.456;2023-04-24T07:18:40;9.40;99.90
25918;DHT22;13899;51.174;4.456;2023-04-24T07:21:05;9.40;99.90
25918;DHT22;13899;51.174;4.456;2023-04-24T07:23:32;9.50;99.90
25918;DHT22;13899;51.174;4.456;2023-04-24T07:25:58;9.40;99.90
25918;DHT22;13899;51.174;4.456;2023-04-24T07:28:23;9.60;99.90
25918;DHT22;13899;51.174;4.456;2023-04-24T07:30:50;9.70;99.90
25918;DHT22;13899;51.174;4.456;2023-04-24T07:33:15;9.60;99.90
25918;DHT22;13899;51.174;4.456;2023-04-24T07:35:41;9.70;99.90
25918;DHT22;13899;51.174;4.456;2023-04-24T07:38:06;9.80;99.90
25918;DHT22;13899;51.174;4.456;2023-04-24T07:40:32;10.10;99.90
25918;DHT22;13899;51.174;4.456;2023-04-24T07:42:58;10.00;99.90
25918;DHT22;13899;51.174;4.456;2023-04-24T07:45:24;10.10;99.90
25918;DHT22;13899;51.174;4.456;2023-04-24T07:47:51;10.30;99.90
25918;DHT22;13899;51.174;4.456;2023-04-24T07:50:17;10.60;99.90
25918;DHT22;13899;51.174;4.456;2023-04-24T07:52:42;10.40;99.90
25918;DHT22;13899;51.174;4.456;2023-04-24T07:55:08;10.20;99.90
25918;DHT22;13899;51.174;4.456;2023-04-24T07:57:34;10.40;99.90
25918;DHT22;13899;51.174;4.456;2023-04-24T07:59:59;10.30;99.90
25918;DHT22;13899;51.174;4.456;2023-04-24T08:02:25;10.20;99.90
25918;DHT22;13899;51.174;4.456;2023-04-24T08:04:55;10.60;99.90
25918;DHT22;13899;51.174;4.456;2023-04-24T08:07:22;10.70;99.90
25918;DHT22;13899;51.174;4.456;2023-04-24T08:09:48;11.00;99.90
25918;DHT22;13899;51.174;4.456;2023-04-24T08:12:14;11.20;99.90
25918;DHT22;13899;51.174;4.456;2023-04-24T08:14:40;10.80;99.90
25918;DHT22;13899;51.174;4.456;2023-04-24T08:17:05;10.40;99.90
25918;DHT22;13899;51.174;4.456;2023-04-24T08:19:31;10.20;99.90
25918;DHT22;13899;51.174;4.456;2023-04-24T08:21:57;10.00;99.90
25918;DHT22;13899;51.174;4.456;2023-04-24T08:24:22;10.20;99.90
25918;DHT22;13899;51.174;4.456;2023-04-24T08:26:48;10.40;99.90
25918;DHT22;13899;51.174;4.456;2023-04-24T08:29:16;10.30;99.90
25918;DHT22;13899;51.174;4.456;2023-04-24T08:31:41;10.30;99.90
25918;DHT22;13899;51.174;4.456;2023-04-24T08:34:07;10.40;99.90
25918;DHT22;13899;51.174;4.456;2023-04-24T08:36:33;10.80;99.90
25918;DHT22;13899;51.174;4.456;2023-04-24T08:38:58;10.80;99.90
25918;DHT22;13899;51.174;4.456;2023-04-24T08:41:24;11.00;99.90
25918;DHT22;13899;51.174;4.456;2023-04-24T08:43:52;10.90;99.90
25918;DHT22;13899;51.174;4.456;2023-04-24T08:46:18;10.80;99.90
25918;DHT22;13899;51.174;4.456;2023-04-24T08:48:45;10.90;99.90
25918;DHT22;13899;51.174;4.456;2023-04-24T08:51:10;10.70;99.90
25918;DHT22;13899;51.174;4.456;2023-04-24T08:53:37;10.90;99.90
25918;DHT22;13899;51.174;4.456;2023-04-24T08:56:03;11.10;99.90
25918;DHT22;13899;51.174;4.456;2023-04-24T08:58:30;11.40;99.90
25918;DHT22;13899;51.174;4.456;2023-04-24T09:00:57;11.70;99.90
25918;DHT22;13899;51.174;4.456;2023-04-24T09:03:23;11.60;99.90
25918;DHT22;13899;51.174;4.456;2023-04-24T09:05:50;11.20;99.90
25918;DHT22;13899;51.174;4.456;2023-04-24T09:08:19;10.90;99.90
25918;DHT22;13899;51.174;4.456;2023-04-24T09:10:45;10.70;99.90
25918;DHT22;13899;51.174;4.456;2023-04-24T09:13:11;10.80;99.90
25918;DHT22;13899;51.174;4.456;2023-04-24T09:15:41;11.10;99.90
25918;DHT22;13899;51.174;4.456;2023-04-24T09:18:07;10.70;99.90
25918;DHT22;13899;51.174;4.456;2023-04-24T09:20:33;10.80;99.90
25918;DHT22;13899;51.174;4.456;2023-04-24T09:23:00;10.70;99.90
25918;DHT22;13899;51.174;4.456;2023-04-24T09:25:33;10.60;99.90
25918;DHT22;13899;51.174;4.456;2023-04-24T09:28:02;10.70;99.90
25918;DHT22;13899;51.174;4.456;2023-04-24T09:30:29;11.00;99.90
25918;DHT22;13899;51.174;4.456;2023-04-24T09:33:14;11.00;99.90
25918;DHT22;13899;51.174;4.456;2023-04-24T09:35:51;11.00;99.90
25918;DHT22;13899;51.174;4.456;2023-04-24T09:38:17;11.20;99.90
25918;DHT22;13899;51.174;4.456;2023-04-24T09:40:43;11.20;99.90
25918;DHT22;13899;51.174;4.456;2023-04-24T09:43:11;11.80;99.90
25918;DHT22;13899;51.174;4.456;2023-04-24T09:45:39;12.80;99.90
25918;DHT22;13899;51.174;4.456;2023-04-24T09:48:05;13.80;99.90
25918;DHT22;13899;51.174;4.456;2023-04-24T09:50:34;15.40;99.90
25918;DHT22;13899;51.174;4.456;2023-04-24T09:53:04;14.70;99.90
25918;DHT22;13899;51.174;4.456;2023-04-24T09:55:42;13.50;99.90
25918;DHT22;13899;51.174;4.456;2023-04-24T09:58:10;13.20;99.90
25918;DHT22;13899;51.174;4.456;2023-04-24T10:00:37;13.20;99.90
25918;DHT22;13899;51.174;4.456;2023-04-24T10:03:04;14.00;99.90
25918;DHT22;13899;51.174;4.456;2023-04-24T10:05:30;13.80;99.90
25918;DHT22;13899;51.174;4.456;2023-04-24T10:08:17;13.40;99.90
25918;DHT22;13899;51.174;4.456;2023-04-24T10:10:44;14.70;99.90
25918;DHT22;13899;51.174;4.456;2023-04-24T10:13:12;16.40;99.90
25918;DHT22;13899;51.174;4.456;2023-04-24T10:15:39;17.00;99.90
25918;DHT22;13899;51.174;4.456;2023-04-24T10:18:06;16.80;99.90
25918;DHT22;13899;51.174;4.456;2023-04-24T10:20:38;15.70;99.90
25918;DHT22;13899;51.174;4.456;2023-04-24T10:23:05;15.80;99.90
25918;DHT22;13899;51.174;4.456;2023-04-24T10:25:33;15.60;99.90
25918;DHT22;13899;51.174;4.456;2023-04-24T10:28:02;14.80;99.90
25918;DHT22;13899;51.174;4.456;2023-04-24T10:30:37;14.30;99.90
25918;DHT22;13899;51.174;4.456;2023-04-24T10:33:10;14.20;99.90
25918;DHT22;13899;51.174;4.456;2023-04-24T10:35:50;14.20;99.90
25918;DHT22;13899;51.174;4.456;2023-04-24T10:41:11;13.50;99.90
25918;DHT22;13899;51.174;4.456;2023-04-24T10:43:42;13.40;99.90
25918;DHT22;13899;51.174;4.456;2023-04-24T10:46:09;14.20;99.90
25918;DHT22;13899;51.174;4.456;2023-04-24T10:48:36;14.60;99.90
25918;DHT22;13899;51.174;4.456;2023-04-24T10:51:12;14.90;99.90
25918;DHT22;13899;51.174;4.456;2023-04-24T10:53:39;15.10;99.90
25918;DHT22;13899;51.174;4.456;2023-04-24T10:56:08;15.70;99.90
25918;DHT22;13899;51.174;4.456;2023-04-24T10:58:51;15.40;99.90
25918;DHT22;13899;51.174;4.456;2023-04-24T11:03:58;14.40;99.90
25918;DHT22;13899;51.174;4.456;2023-04-24T11:06:36;14.60;99.90
25918;DHT22;13899;51.174;4.456;2023-04-24T11:09:09;14.00;99.90
25918;DHT22;13899;51.174;4.456;2023-04-24T11:11:38;13.50;99.90
25918;DHT22;13899;51.174;4.456;2023-04-24T11:14:10;13.00;99.90
25918;DHT22;13899;51.174;4.456;2023-04-24T11:19:09;14.60;99.90
25918;DHT22;13899;51.174;4.456;2023-04-24T11:21:47;14.40;99.90
25918;DHT22;13899;51.174;4.456;2023-04-24T11:24:26;15.00;99.90
25918;DHT22;13899;51.174;4.456;2023-04-24T11:29:48;15.60;99.90
25918;DHT22;13899;51.174;4.456;2023-04-24T11:32:17;15.70;99.90
25918;DHT22;13899;51.174;4.456;2023-04-24T11:34:49;15.20;99.90
25918;DHT22;13899;51.174;4.456;2023-04-24T11:37:16;14.40;99.90
25918;DHT22;13899;51.174;4.456;2023-04-24T11:39:42;14.90;99.90
25918;DHT22;13899;51.174;4.456;2023-04-24T11:42:09;15.20;99.90
25918;DHT22;13899;51.174;4.456;2023-04-24T11:44:35;15.60;99.90
25918;DHT22;13899;51.174;4.456;2023-04-24T11:47:31;15.10;99.90
25918;DHT22;13899;51.174;4.456;2023-04-24T11:50:04;15.10;99.90
25918;DHT22;13899;51.174;4.456;2023-04-24T11:52:31;14.90;99.90
25918;DHT22;13899;51.174;4.456;2023-04-24T11:54:57;15.50;99.90
25918;DHT22;13899;51.174;4.456;2023-04-24T11:57:24;15.70;99.90
25918;DHT22;13899;51.174;4.456;2023-04-24T11:59:53;15.70;99.90
25918;DHT22;13899;51.174;4.456;2023-04-24T12:02:23;15.30;99.90
25918;DHT22;13899;51.174;4.456;2023-04-24T12:04:50;14.80;99.90
25918;DHT22;13899;51.174;4.456;2023-04-24T12:07:16;15.60;99.90
25918;DHT22;13899;51.174;4.456;2023-04-24T12:12:08;15.30;99.90
25918;DHT22;13899;51.174;4.456;2023-04-24T12:15:27;15.40;99.90
25918;DHT22;13899;51.174;4.456;2023-04-24T12:17:34;15.60;99.90
25918;DHT22;13899;51.174;4.456;2023-04-24T12:20:06;16.20;99.90
25918;DHT22;13899;51.174;4.456;2023-04-24T12:22:55;16.30;99.90
25918;DHT22;13899;51.174;4.456;2023-04-24T12:25:23;15.70;99.90
25918;DHT22;13899;51.174;4.456;2023-04-24T12:30:32;15.30;99.90
25918;DHT22;13899;51.174;4.456;2023-04-24T12:32:59;15.10;99.90
25918;DHT22;13899;51.174;4.456;2023-04-24T12:35:28;14.90;99.90
25918;DHT22;13899;51.174;4.456;2023-04-24T12:37:55;15.20;99.90
25918;DHT22;13899;51.174;4.456;2023-04-24T12:40:25;15.60;99.90
25918;DHT22;13899;51.174;4.456;2023-04-24T12:42:52;15.70;99.90
25918;DHT22;13899;51.174;4.456;2023-04-24T12:45:19;15.80;99.90
25918;DHT22;13899;51.174;4.456;2023-04-24T12:47:45;15.60;99.90
25918;DHT22;13899;51.174;4.456;2023-04-24T12:50:14;15.50;99.90
25918;DHT22;13899;51.174;4.456;2023-04-24T12:52:41;15.90;99.90
25918;DHT22;13899;51.174;4.456;2023-04-24T12:55:07;16.10;99.90
25918;DHT22;13899;51.174;4.456;2023-04-24T13:00:01;17.30;99.90
25918;DHT22;13899;51.174;4.456;2023-04-24T13:02:28;16.90;99.90
25918;DHT22;13899;51.174;4.456;2023-04-24T13:04:56;16.80;99.90
25918;DHT22;13899;51.174;4.456;2023-04-24T13:07:22;17.10;99.90
25918;DHT22;13899;51.174;4.456;2023-04-24T13:09:49;16.90;99.90
25918;DHT22;13899;51.174;4.456;2023-04-24T13:12:15;16.40;99.90
25918;DHT22;13899;51.174;4.456;2023-04-24T13:14:41;17.10;99.90
25918;DHT22;13899;51.174;4.456;2023-04-24T13:17:07;18.40;99.90
25918;DHT22;13899;51.174;4.456;2023-04-24T13:19:40;19.10;99.90
25918;DHT22;13899;51.174;4.456;2023-04-24T13:22:06;20.60;99.90
25918;DHT22;13899;51.174;4.456;2023-04-24T13:24:32;19.20;99.90
25918;DHT22;13899;51.174;4.456;2023-04-24T13:26:58;17.50;99.90
25918;DHT22;13899;51.174;4.456;2023-04-24T13:29:25;20.10;99.90
25918;DHT22;13899;51.174;4.456;2023-04-24T13:31:51;19.00;99.90
25918;DHT22;13899;51.174;4.456;2023-04-24T13:34:19;18.60;99.90
25918;DHT22;13899;51.174;4.456;2023-04-24T13:36:45;18.10;99.90
25918;DHT22;13899;51.174;4.456;2023-04-24T13:39:11;19.30;99.90
25918;DHT22;13899;51.174;4.456;2023-04-24T13:41:37;20.60;99.90
25918;DHT22;13899;51.174;4.456;2023-04-24T13:44:04;22.00;99.10
25918;DHT22;13899;51.174;4.456;2023-04-24T13:46:30;22.60;98.00
25918;DHT22;13899;51.174;4.456;2023-04-24T13:48:56;22.20;95.20
25918;DHT22;13899;51.174;4.456;2023-04-24T13:51:23;21.10;95.80
25918;DHT22;13899;51.174;4.456;2023-04-24T13:53:49;20.40;96.90
25918;DHT22;13899;51.174;4.456;2023-04-24T13:56:14;20.30;96.10
25918;DHT22;13899;51.174;4.456;2023-04-24T13:58:40;21.20;95.20
25918;DHT22;13899;51.174;4.456;2023-04-24T14:01:06;22.40;92.40
25918;DHT22;13899;51.174;4.456;2023-04-24T14:03:33;22.50;90.60
25918;DHT22;13899;51.174;4.456;2023-04-24T14:05:58;22.10;87.90
25918;DHT22;13899;51.174;4.456;2023-04-24T14:08:24;22.60;90.20
25918;DHT22;13899;51.174;4.456;2023-04-24T14:10:50;22.10;89.90
25918;DHT22;13899;51.174;4.456;2023-04-24T14:13:16;21.00;91.10
25918;DHT22;13899;51.174;4.456;2023-04-24T14:15:43;22.80;90.90
25918;DHT22;13899;51.174;4.456;2023-04-24T14:18:10;23.90;86.00
25918;DHT22;13899;51.174;4.456;2023-04-24T14:20:36;24.60;81.00
25918;DHT22;13899;51.174;4.456;2023-04-24T14:23:02;23.80;84.30
25918;DHT22;13899;51.174;4.456;2023-04-24T14:25:28;22.50;87.60
25918;DHT22;13899;51.174;4.456;2023-04-24T14:27:54;20.80;91.00
25918;DHT22;13899;51.174;4.456;2023-04-24T14:30:21;19.40;94.60
25918;DHT22;13899;51.174;4.456;2023-04-24T14:32:46;18.70;97.90
25918;DHT22;13899;51.174;4.456;2023-04-24T14:35:12;17.60;99.80
25918;DHT22;13899;51.174;4.456;2023-04-24T14:37:39;19.10;99.70
25918;DHT22;13899;51.174;4.456;2023-04-24T14:40:07;20.90;94.40
25918;DHT22;13899;51.174;4.456;2023-04-24T14:42:33;22.50;91.50
25918;DHT22;13899;51.174;4.456;2023-04-24T14:45:00;23.70;90.30
25918;DHT22;13899;51.174;4.456;2023-04-24T14:47:26;23.30;85.70
25918;DHT22;13899;51.174;4.456;2023-04-24T14:49:51;21.70;86.90
25918;DHT22;13899;51.174;4.456;2023-04-24T14:52:17;20.00;92.60
25918;DHT22;13899;51.174;4.456;2023-04-24T14:54:43;19.80;92.50
25918;DHT22;13899;51.174;4.456;2023-04-24T14:57:09;20.10;91.20
25918;DHT22;13899;51.174;4.456;2023-04-24T14:59:35;19.60;92.00
25918;DHT22;13899;51.174;4.456;2023-04-24T15:02:01;19.80;94.30
25918;DHT22;13899;51.174;4.456;2023-04-24T15:04:27;19.40;93.40
25918;DHT22;13899;51.174;4.456;2023-04-24T15:06:54;18.80;94.90
25918;DHT22;13899;51.174;4.456;2023-04-24T15:09:23;18.20;97.50
25918;DHT22;13899;51.174;4.456;2023-04-24T15:11:50;17.50;99.90
25918;DHT22;13899;51.174;4.456;2023-04-24T15:14:17;17.70;99.90
25918;DHT22;13899;51.174;4.456;2023-04-24T15:16:43;18.40;99.90
25918;DHT22;13899;51.174;4.456;2023-04-24T15:19:09;20.00;98.40
25918;DHT22;13899;51.174;4.456;2023-04-24T15:21:38;20.30;96.10
25918;DHT22;13899;51.174;4.456;2023-04-24T15:24:06;20.70;95.00
25918;DHT22;13899;51.174;4.456;2023-04-24T15:26:33;19.80;95.50
25918;DHT22;13899;51.174;4.456;2023-04-24T15:28:59;18.80;95.60
25918;DHT22;13899;51.174;4.456;2023-04-24T15:31:24;18.00;97.00
25918;DHT22;13899;51.174;4.456;2023-04-24T15:33:50;17.40;98.50
25918;DHT22;13899;51.174;4.456;2023-04-24T15:36:17;16.90;98.40
25918;DHT22;13899;51.174;4.456;2023-04-24T15:38:43;15.80;99.90
25918;DHT22;13899;51.174;4.456;2023-04-24T15:41:10;15.90;99.90
25918;DHT22;13899;51.174;4.456;2023-04-24T15:43:36;15.90;99.90
25918;DHT22;13899;51.174;4.456;2023-04-24T15:46:04;16.20;99.90
25918;DHT22;13899;51.174;4.456;2023-04-24T15:48:30;16.10;99.90
25918;DHT22;13899;51.174;4.456;2023-04-24T15:50:56;16.00;99.90
25918;DHT22;13899;51.174;4.456;2023-04-24T15:53:22;16.50;99.90
25918;DHT22;13899;51.174;4.456;2023-04-24T15:55:48;16.20;99.90